createdAt,value
2022-09-13T00:00:37.660Z,99183.29
2022-09-13T00:02:42.439Z,99178.90
2022-09-13T00:04:47.202Z,99176.55
2022-09-13T00:06:52.042Z,99179.23
2022-09-13T00:08:56.866Z,99174.02
2022-09-13T00:11:01.702Z,99165.73
2022-09-13T00:13:07.804Z,99164.50
2022-09-13T00:15:13.194Z,99160.27
2022-09-13T00:17:18.046Z,99161.39
2022-09-13T00:19:22.852Z,99161.96
2022-09-13T00:21:27.612Z,99159.44
2022-09-13T00:23:32.469Z,99155.33
2022-09-13T00:25:37.816Z,99157.28
2022-09-13T00:27:42.705Z,99159.15
2022-09-13T00:29:47.453Z,99158.92
2022-09-13T00:31:52.290Z,99158.05
2022-09-13T00:33:58.985Z,99156.00
2022-09-13T00:36:07.483Z,99151.14
2022-09-13T00:38:12.164Z,99151.59
2022-09-13T00:40:17.327Z,99155.10
2022-09-13T00:42:27.385Z,99157.86
2022-09-13T00:44:55.149Z,99156.48
2022-09-13T00:47:00.919Z,99152.31
2022-09-13T00:49:12.928Z,99151.17
2022-09-13T00:51:18.156Z,99149.17
2022-09-13T00:53:28.729Z,99148.65
2022-09-13T00:55:38.371Z,99147.17
2022-09-13T00:57:44.017Z,99145.17
2022-09-13T00:59:52.835Z,99142.77
2022-09-13T01:01:58.372Z,99141.67
2022-09-13T01:04:04.740Z,99137.59
2022-09-13T01:06:13.007Z,99137.98
2022-09-13T01:08:18.277Z,99137.26
2022-09-13T01:10:23.134Z,99137.69
2022-09-13T01:12:34.939Z,99137.77
2022-09-13T01:14:40.460Z,99133.87
2022-09-13T01:16:47.885Z,99133.59
2022-09-13T01:18:56.082Z,99137.06
2022-09-13T01:21:35.433Z,99135.80
2022-09-13T01:24:03.509Z,99137.91
2022-09-13T01:26:31.636Z,99133.98
2022-09-13T01:29:05.398Z,99129.52
2022-09-13T01:31:20.012Z,99128.21
2022-09-13T01:33:47.797Z,99129.30
2022-09-13T01:36:28.756Z,99126.63
2022-09-13T01:38:47.732Z,99130.03
2022-09-13T01:41:07.156Z,99122.45
2022-09-13T01:43:31.439Z,99116.35
2022-09-13T01:45:45.139Z,99111.45
2022-09-13T01:47:55.681Z,99108.61
2022-09-13T01:50:15.828Z,99105.17
2022-09-13T01:52:29.036Z,99101.15
2022-09-13T01:54:39.793Z,99099.55
2022-09-13T01:56:54.678Z,99101.77
2022-09-13T01:59:06.787Z,99099.52
2022-09-13T02:01:16.465Z,99097.73
2022-09-13T02:03:26.563Z,99093.38
2022-09-13T02:05:37.650Z,99090.30
2022-09-13T02:07:48.327Z,99085.41
2022-09-13T02:10:11.030Z,99087.49
2022-09-13T02:12:20.292Z,99087.25
2022-09-13T02:14:32.142Z,99085.39
2022-09-13T02:16:41.487Z,99081.97
2022-09-13T02:18:54.183Z,99079.59
2022-09-13T02:21:01.910Z,99077.14
2022-09-13T02:23:13.159Z,99075.39
2022-09-13T02:25:22.845Z,99077.86
2022-09-13T02:27:35.974Z,99070.19
2022-09-13T02:29:45.128Z,99068.70
2022-09-13T02:31:55.683Z,99064.40
2022-09-13T02:34:03.872Z,99063.86
2022-09-13T02:36:12.394Z,99061.48
2022-09-13T02:38:25.597Z,99059.89
2022-09-13T02:40:37.529Z,99058.21
2022-09-13T02:42:47.664Z,99056.70
2022-09-13T02:44:54.268Z,99056.42
2022-09-13T02:47:16.970Z,99054.70
2022-09-13T02:49:27.027Z,99056.83
2022-09-13T02:51:44.489Z,99060.56
2022-09-13T02:53:55.824Z,99061.19
2022-09-13T02:56:11.260Z,99065.87
2022-09-13T02:58:26.270Z,99066.67
2022-09-13T03:00:32.208Z,99060.04
2022-09-13T03:02:39.656Z,99059.88
2022-09-13T03:04:44.261Z,99060.27
2022-09-13T03:06:50.822Z,99052.77
2022-09-13T03:09:00.846Z,99059.05
2022-09-13T03:11:15.687Z,99056.21
2022-09-13T03:13:40.659Z,99056.58
2022-09-13T03:16:04.519Z,99054.48
2022-09-13T03:18:23.850Z,99054.02
2022-09-13T03:20:42.839Z,99051.33
2022-09-13T03:23:02.953Z,99050.98
2022-09-13T03:25:23.304Z,99051.56
2022-09-13T03:27:35.617Z,99046.23
2022-09-13T03:29:51.293Z,99046.70
2022-09-13T03:32:09.969Z,99044.32
2022-09-13T03:34:25.438Z,99042.13
2022-09-13T03:36:37.986Z,99041.54
2022-09-13T03:38:46.755Z,99046.63
2022-09-13T03:40:56.828Z,99048.13
2022-09-13T03:43:08.251Z,99045.17
2022-09-13T03:45:14.909Z,99040.71
2022-09-13T03:47:22.640Z,99039.38
2022-09-13T03:49:29.769Z,99036.08
2022-09-13T03:51:38.635Z,99038.45
2022-09-13T03:53:49.555Z,99039.73
2022-09-13T03:55:54.279Z,99038.93
2022-09-13T03:58:00.426Z,99041.48
2022-09-13T04:00:07.228Z,99037.70
2022-09-13T04:02:17.609Z,99044.29
2022-09-13T04:04:22.349Z,99043.73
2022-09-13T04:06:27.171Z,99049.02
2022-09-13T04:08:32.341Z,99048.15
2022-09-13T04:10:37.808Z,99046.77
2022-09-13T04:12:42.583Z,99048.89
2022-09-13T04:14:47.274Z,99050.55
2022-09-13T04:16:52.993Z,99045.59
2022-09-13T04:18:58.049Z,99044.45
2022-09-13T04:21:03.787Z,99042.11
2022-09-13T04:23:08.425Z,99044.45
2022-09-13T04:25:13.118Z,99045.42
2022-09-13T04:27:17.769Z,99043.73
2022-09-13T04:29:23.527Z,99049.79
2022-09-13T04:31:28.226Z,99052.20
2022-09-13T04:33:32.909Z,99051.97
2022-09-13T04:35:37.517Z,99054.39
2022-09-13T04:37:42.189Z,99050.04
2022-09-13T04:39:47.137Z,99049.13
2022-09-13T04:41:52.201Z,99049.89
2022-09-13T04:43:56.827Z,99049.54
2022-09-13T04:46:02.633Z,99047.81
2022-09-13T04:48:07.855Z,99046.81
2022-09-13T04:50:12.596Z,99042.64
2022-09-13T04:52:17.366Z,99036.84
2022-09-13T04:54:22.058Z,99030.27
2022-09-13T04:56:26.780Z,99030.28
2022-09-13T04:58:31.816Z,99038.77
2022-09-13T05:00:36.500Z,99043.54
2022-09-13T05:02:41.226Z,99047.80
2022-09-13T05:04:45.939Z,99049.76
2022-09-13T05:06:50.609Z,99052.92
2022-09-13T05:08:56.316Z,99047.84
2022-09-13T05:11:01.749Z,99050.44
2022-09-13T05:13:06.348Z,99048.16
2022-09-13T05:15:12.472Z,99049.59
2022-09-13T05:17:17.153Z,99048.89
2022-09-13T05:19:21.912Z,99046.27
2022-09-13T05:21:27.116Z,99046.39
2022-09-13T05:23:32.803Z,99048.09
2022-09-13T05:25:37.870Z,99048.20
2022-09-13T05:27:42.581Z,99051.45
2022-09-13T05:29:47.311Z,99052.80
2022-09-13T05:31:51.922Z,99050.33
2022-09-13T05:33:59.610Z,99051.64
2022-09-13T05:36:04.985Z,99056.13
2022-09-13T05:38:09.789Z,99054.80
2022-09-13T05:40:14.691Z,99052.98
2022-09-13T05:42:20.409Z,99052.27
2022-09-13T05:44:25.022Z,99055.65
2022-09-13T05:46:29.666Z,99060.64
2022-09-13T05:48:35.502Z,99058.02
2022-09-13T05:53:05.394Z,99065.48
2022-09-13T05:55:10.794Z,99067.89
2022-09-13T05:57:15.427Z,99063.68
2022-09-13T05:59:20.183Z,99061.81
2022-09-13T06:01:26.713Z,99057.19
2022-09-13T06:03:31.416Z,99058.27
2022-09-13T06:05:36.043Z,99060.41
2022-09-13T06:07:42.810Z,99060.88
2022-09-13T06:09:47.510Z,99061.69
2022-09-13T06:11:52.129Z,99055.95
2022-09-13T06:13:56.827Z,99054.33
2022-09-13T06:16:03.660Z,99058.19
2022-09-13T06:18:08.381Z,99055.21
2022-09-13T06:20:16.295Z,99050.06
2022-09-13T06:22:20.968Z,99051.13
2022-09-13T06:24:25.662Z,99052.73
2022-09-13T06:26:30.369Z,99047.98
2022-09-13T06:28:37.418Z,99044.62
2022-09-13T06:30:42.459Z,99039.65
2022-09-13T06:32:47.064Z,99033.42
2022-09-13T06:34:51.751Z,99036.59
2022-09-13T06:36:56.603Z,99041.34
2022-09-13T06:39:01.209Z,99037.91
2022-09-13T06:41:08.281Z,99040.02
2022-09-13T06:43:13.005Z,99038.14
2022-09-13T06:45:17.971Z,99038.05
2022-09-13T06:47:22.708Z,99040.05
2022-09-13T06:49:27.378Z,99045.00
2022-09-13T06:51:32.812Z,99044.23
2022-09-13T06:53:39.062Z,99041.27
2022-09-13T06:55:43.747Z,99039.45
2022-09-13T06:57:48.300Z,99040.10
2022-09-13T06:59:52.981Z,99045.49
2022-09-13T07:01:57.839Z,99043.17
2022-09-13T07:04:05.265Z,99044.79
2022-09-13T07:06:12.359Z,99042.59
2022-09-13T07:08:16.924Z,99040.98
2022-09-13T07:10:21.580Z,99036.77
2022-09-13T07:12:26.289Z,99031.13
2022-09-13T07:14:31.186Z,99029.20
2022-09-13T07:16:37.650Z,99023.20
2022-09-13T07:18:42.340Z,99021.50
2022-09-13T07:20:47.084Z,99019.06
2022-09-13T07:22:52.516Z,99017.72
2022-09-13T07:24:57.148Z,99017.45
2022-09-13T07:27:01.818Z,99018.25
2022-09-13T07:29:09.342Z,99020.20
2022-09-13T07:31:16.018Z,99028.39
2022-09-13T07:33:20.722Z,99032.18
2022-09-13T07:35:25.483Z,99036.17
2022-09-13T07:37:30.197Z,99038.23
2022-09-13T07:39:34.980Z,99041.04
2022-09-13T07:41:39.756Z,99037.95
2022-09-13T07:43:44.511Z,99035.69
2022-09-13T07:45:55.988Z,99036.30
2022-09-13T07:48:00.690Z,99035.20
2022-09-13T07:50:06.286Z,99037.38
2022-09-13T07:52:11.037Z,99040.94
2022-09-13T07:54:18.167Z,99043.55
2022-09-13T07:56:24.875Z,99040.94
2022-09-13T07:58:29.736Z,99044.14
2022-09-13T08:00:34.439Z,99039.23
2022-09-13T08:02:39.228Z,99038.64
2022-09-13T08:04:44.109Z,99033.33
2022-09-13T08:06:51.226Z,99031.24
2022-09-13T08:08:56.696Z,99029.05
2022-09-13T08:11:03.577Z,99023.54
2022-09-13T08:13:08.282Z,99025.79
2022-09-13T08:15:13.352Z,99035.48
2022-09-13T08:17:18.049Z,99034.27
2022-09-13T08:19:22.812Z,99039.33
2022-09-13T08:21:32.049Z,99041.28
2022-09-13T08:23:36.763Z,99043.16
2022-09-13T08:25:42.042Z,99045.42
2022-09-13T08:27:46.755Z,99050.23
2022-09-13T08:29:51.518Z,99047.52
2022-09-13T08:31:56.347Z,99042.33
2022-09-13T08:34:01.282Z,99047.44
2022-09-13T08:36:06.640Z,99046.06
2022-09-13T08:38:11.386Z,99045.90
2022-09-13T08:40:17.263Z,99047.13
2022-09-13T08:42:44.499Z,99042.15
2022-09-13T08:44:53.172Z,99041.88
2022-09-13T08:47:04.383Z,99042.08
2022-09-13T08:49:16.541Z,99038.77
2022-09-13T08:51:32.502Z,99040.11
2022-09-13T08:53:45.145Z,99034.40
2022-09-13T08:55:56.774Z,99027.52
2022-09-13T08:58:14.766Z,99028.10
2022-09-13T09:00:28.071Z,99024.24
2022-09-13T09:02:50.140Z,99020.61
2022-09-13T09:05:02.302Z,99020.00
2022-09-13T09:07:13.211Z,99023.38
2022-09-13T09:09:20.968Z,99023.98
2022-09-13T09:11:35.110Z,99024.58
2022-09-13T09:13:48.903Z,99024.88
2022-09-13T09:15:58.609Z,99027.42
2022-09-13T09:18:09.511Z,99028.58
2022-09-13T09:20:24.630Z,99023.23
2022-09-13T09:22:34.764Z,99022.79
2022-09-13T09:24:40.605Z,99021.67
2022-09-13T09:26:45.362Z,99020.85
2022-09-13T09:28:54.194Z,99021.45
2022-09-13T09:31:04.532Z,99021.08
2022-09-13T09:33:24.627Z,99019.98
2022-09-13T09:35:38.760Z,99018.32
2022-09-13T09:37:46.616Z,99017.72
2022-09-13T09:39:52.401Z,99013.59
2022-09-13T09:41:57.507Z,99011.36
2022-09-13T09:44:17.000Z,99006.80
2022-09-13T09:46:27.365Z,99002.89
2022-09-13T09:48:41.805Z,99001.89
2022-09-13T09:50:50.722Z,98996.27
2022-09-13T09:53:01.701Z,98992.45
2022-09-13T09:55:17.318Z,98983.34
2022-09-13T09:57:22.007Z,98977.21
2022-09-13T09:59:31.338Z,98974.59
2022-09-13T10:01:37.757Z,98972.14
2022-09-13T10:03:42.630Z,98970.08
2022-09-13T10:05:47.733Z,98963.23
2022-09-13T10:07:58.459Z,98961.77
2022-09-13T10:10:06.182Z,98959.84
2022-09-13T10:12:25.341Z,98960.57
2022-09-13T10:14:36.249Z,98954.09
2022-09-13T10:16:41.100Z,98955.41
2022-09-13T10:18:45.869Z,98955.22
2022-09-13T10:21:02.463Z,98949.02
2022-09-13T10:23:26.878Z,98946.58
2022-09-13T10:25:31.672Z,98944.63
2022-09-13T10:27:39.703Z,98942.85
2022-09-13T10:29:51.467Z,98941.90
2022-09-13T10:31:56.980Z,98938.15
2022-09-13T10:34:04.749Z,98939.26
2022-09-13T10:36:25.044Z,98944.08
2022-09-13T10:38:46.028Z,98943.25
2022-09-13T10:40:51.067Z,98944.37
2022-09-13T10:42:58.669Z,98945.59
2022-09-13T10:45:06.178Z,98948.73
2022-09-13T10:47:19.261Z,98951.02
2022-09-13T10:49:42.877Z,98950.34
2022-09-13T10:51:47.622Z,98951.72
2022-09-13T10:54:07.152Z,98948.52
2022-09-13T10:56:22.737Z,98939.48
2022-09-13T10:58:27.425Z,98943.97
2022-09-13T11:00:39.739Z,98938.55
2022-09-13T11:03:07.326Z,98935.96
2022-09-13T11:05:21.004Z,98935.55
2022-09-13T11:07:52.030Z,98927.69
2022-09-13T11:10:02.127Z,98927.04
2022-09-13T11:12:13.468Z,98926.30
2022-09-13T11:14:40.000Z,98925.52
2022-09-13T11:16:55.668Z,98925.46
2022-09-13T11:19:17.922Z,98917.86
2022-09-13T11:21:39.803Z,98921.41
2022-09-13T11:24:03.458Z,98915.19
2022-09-13T11:26:24.218Z,98908.55
2022-09-13T11:28:37.466Z,98904.16
2022-09-13T11:31:01.529Z,98898.77
2022-09-13T11:33:37.657Z,98896.20
2022-09-13T11:36:17.960Z,98899.00
2022-09-13T11:38:41.430Z,98896.77
2022-09-13T11:40:58.750Z,98895.78
2022-09-13T11:43:19.573Z,98890.06
2022-09-13T11:45:29.122Z,98885.73
2022-09-13T11:47:45.376Z,98886.63
2022-09-13T11:50:05.714Z,98888.30
2022-09-13T11:52:23.072Z,98887.29
2022-09-13T11:54:44.804Z,98883.60
2022-09-13T11:56:55.632Z,98879.01
2022-09-13T11:59:11.144Z,98879.81
2022-09-13T12:01:25.587Z,98879.11
2022-09-13T12:03:37.520Z,98878.10
2022-09-13T12:05:49.232Z,98888.39
2022-09-13T12:07:59.839Z,98883.37
2022-09-13T12:10:14.115Z,98879.13
2022-09-13T12:12:19.586Z,98875.55
2022-09-13T12:14:30.437Z,98874.81
2022-09-13T12:16:38.774Z,98871.15
2022-09-13T12:18:46.910Z,98864.77
2022-09-13T12:20:53.661Z,98859.54
2022-09-13T12:23:01.737Z,98856.85
2022-09-13T12:25:17.835Z,98852.02
2022-09-13T12:27:30.657Z,98848.44
2022-09-13T12:29:40.683Z,98842.42
2022-09-13T12:31:45.401Z,98834.23
2022-09-13T12:33:50.482Z,98833.14
2022-09-13T12:36:25.824Z,98829.75
2022-09-13T12:39:02.461Z,98821.84
2022-09-13T12:41:36.013Z,98813.93
2022-09-13T12:44:02.789Z,98808.30
2022-09-13T12:46:35.358Z,98812.70
2022-09-13T12:49:01.777Z,98807.82
2022-09-13T12:51:21.373Z,98808.13
2022-09-13T12:53:51.837Z,98806.53
2022-09-13T12:56:35.366Z,98797.27
2022-09-13T12:59:10.250Z,98795.89
2022-09-13T13:01:19.360Z,98795.22
2022-09-13T13:03:29.779Z,98798.80
2022-09-13T13:05:37.402Z,98799.19
2022-09-13T13:07:42.282Z,98797.52
2022-09-13T13:09:48.703Z,98801.31
2022-09-13T13:11:53.337Z,98799.48
2022-09-13T13:14:00.139Z,98800.04
2022-09-13T13:16:23.768Z,98797.25
2022-09-13T13:18:30.901Z,98791.20
2022-09-13T13:21:07.656Z,98787.52
2022-09-13T13:23:25.194Z,98788.80
2022-09-13T13:25:35.865Z,98784.79
2022-09-13T13:27:48.231Z,98791.04
2022-09-13T13:30:39.695Z,98790.98
2022-09-13T13:33:12.911Z,98786.48
2022-09-13T13:35:35.507Z,98788.33
2022-09-13T13:37:40.422Z,98781.64
2022-09-13T13:39:46.347Z,98777.98
2022-09-13T13:41:55.639Z,98778.21
2022-09-13T13:44:01.284Z,98773.01
2022-09-13T13:46:31.461Z,98763.81
2022-09-13T13:48:41.238Z,98755.25
2022-09-13T13:51:27.788Z,98756.58
2022-09-13T13:53:38.399Z,98753.61
2022-09-13T13:55:48.064Z,98751.04
2022-09-13T13:58:01.294Z,98745.63
2022-09-13T14:00:15.821Z,98740.16
2022-09-13T14:02:30.806Z,98738.70
2022-09-13T14:05:05.028Z,98742.69
2022-09-13T14:07:28.279Z,98736.19
2022-09-13T14:09:42.352Z,98733.34
2022-09-13T14:12:02.159Z,98736.37
2022-09-13T14:14:22.229Z,98737.46
2022-09-13T14:16:43.949Z,98737.52
2022-09-13T14:19:15.619Z,98733.56
2022-09-13T14:21:24.413Z,98733.63
2022-09-13T14:23:29.552Z,98733.48
2022-09-13T14:25:34.435Z,98730.77
2022-09-13T14:27:40.251Z,98731.72
2022-09-13T14:29:49.430Z,98729.30
2022-09-13T14:32:01.086Z,98727.23
2022-09-13T14:34:05.791Z,98725.20
2022-09-13T14:36:19.962Z,98720.98
2022-09-13T14:38:27.739Z,98720.44
2022-09-13T14:40:32.581Z,98719.14
2022-09-13T14:42:43.066Z,98716.16
2022-09-13T14:44:48.682Z,98710.72
2022-09-13T14:46:58.973Z,98710.52
2022-09-13T14:49:07.271Z,98708.86
2022-09-13T14:51:19.353Z,98707.45
2022-09-13T14:53:28.223Z,98706.52
2022-09-13T14:55:37.746Z,98705.67
2022-09-13T14:57:48.099Z,98698.56
2022-09-13T14:59:56.422Z,98705.11
2022-09-13T15:02:13.641Z,98703.39
2022-09-13T15:04:19.808Z,98702.17
2022-09-13T15:06:28.420Z,98696.81
2022-09-13T15:08:50.405Z,98692.31
2022-09-13T15:10:59.022Z,98686.12
2022-09-13T15:13:11.621Z,98686.28
2022-09-13T15:15:24.103Z,98690.35
2022-09-13T15:17:29.102Z,98695.84
2022-09-13T15:19:40.202Z,98693.70
2022-09-13T15:21:45.368Z,98695.77
2022-09-13T15:23:52.748Z,98694.14
2022-09-13T15:26:01.834Z,98698.38
2022-09-13T15:28:20.510Z,98699.47
2022-09-13T15:30:28.629Z,98697.46
2022-09-13T15:32:39.776Z,98694.46
2022-09-13T15:34:50.125Z,98691.11
2022-09-13T15:37:11.491Z,98689.27
2022-09-13T15:39:18.686Z,98689.53
2022-09-13T15:41:23.810Z,98685.77
2022-09-13T15:43:28.732Z,98683.39
2022-09-13T15:45:33.569Z,98686.20
2022-09-13T15:47:38.887Z,98678.89
2022-09-13T15:49:49.241Z,98684.52
2022-09-13T15:52:01.954Z,98683.05
2022-09-13T15:54:13.176Z,98689.17
2022-09-13T15:56:21.369Z,98691.13
2022-09-13T15:58:26.097Z,98693.54
2022-09-13T16:00:30.932Z,98691.52
2022-09-13T16:02:43.552Z,98690.07
2022-09-13T16:04:49.129Z,98686.59
2022-09-13T16:06:53.878Z,98690.18
2022-09-13T16:08:58.716Z,98683.04
2022-09-13T16:11:03.464Z,98681.54
2022-09-13T16:13:11.191Z,98680.27
2022-09-13T16:15:16.462Z,98684.83
2022-09-13T16:17:24.502Z,98683.69
2022-09-13T16:19:29.538Z,98688.63
2022-09-13T16:21:34.716Z,98685.65
2022-09-13T16:23:39.523Z,98686.41
2022-09-13T16:25:45.158Z,98683.45
2022-09-13T16:27:50.086Z,98682.35
2022-09-13T16:29:55.346Z,98679.84
2022-09-13T16:32:00.666Z,98681.88
2022-09-13T16:34:05.504Z,98680.82
2022-09-13T16:36:13.206Z,98679.59
2022-09-13T16:38:18.279Z,98683.17
2022-09-13T16:40:23.265Z,98682.26
2022-09-13T16:42:28.522Z,98678.20
2022-09-13T16:44:33.474Z,98672.38
2022-09-13T16:46:38.651Z,98674.77
2022-09-13T16:48:44.054Z,98673.77
2022-09-13T16:50:48.984Z,98672.05
2022-09-13T16:52:53.736Z,98670.38
2022-09-13T16:54:58.549Z,98668.46
2022-09-13T16:57:04.442Z,98670.29
2022-09-13T16:59:09.695Z,98672.59
2022-09-13T17:01:16.764Z,98670.70
2022-09-13T17:03:21.858Z,98666.11
2022-09-13T17:05:26.591Z,98664.98
2022-09-13T17:07:31.434Z,98672.98
2022-09-13T17:09:36.951Z,98669.92
2022-09-13T17:11:44.291Z,98669.16
2022-09-13T17:13:49.456Z,98666.18
2022-09-13T17:15:56.729Z,98663.01
2022-09-13T17:18:01.882Z,98663.04
2022-09-13T17:20:10.340Z,98658.86
2022-09-13T17:22:15.318Z,98653.70
2022-09-13T17:24:20.289Z,98657.24
2022-09-13T17:26:25.431Z,98652.83
2022-09-13T17:28:30.466Z,98651.53
2022-09-13T17:30:35.299Z,98651.65
2022-09-13T17:32:40.365Z,98656.67
2022-09-13T17:34:45.385Z,98654.48
2022-09-13T17:36:51.341Z,98653.63
2022-09-13T17:38:58.484Z,98648.66
2022-09-13T17:41:05.550Z,98651.65
2022-09-13T17:43:10.887Z,98657.56
2022-09-13T17:45:15.806Z,98650.88
2022-09-13T17:47:20.771Z,98650.86
2022-09-13T17:49:25.525Z,98650.33
2022-09-13T17:51:31.534Z,98652.21
2022-09-13T17:53:40.750Z,98650.45
2022-09-13T17:55:51.973Z,98649.74
2022-09-13T17:57:57.792Z,98648.92
2022-09-13T18:00:02.927Z,98647.57
2022-09-13T18:02:12.013Z,98642.14
2022-09-13T18:04:18.707Z,98643.60
2022-09-13T18:06:23.792Z,98641.95
2022-09-13T18:08:31.792Z,98640.92
2022-09-13T18:11:10.580Z,98643.04
2022-09-13T18:13:01.841Z,98642.70
2022-09-13T18:15:09.075Z,98644.27
2022-09-13T18:17:13.827Z,98648.13
2022-09-13T18:19:26.291Z,98654.61
2022-09-13T18:21:39.203Z,98654.10
2022-09-13T18:23:44.386Z,98654.39
2022-09-13T18:26:02.582Z,98652.40
2022-09-13T18:28:09.194Z,98652.27
2022-09-13T18:30:15.031Z,98648.44
2022-09-13T18:32:20.350Z,98649.55
2022-09-13T18:34:27.672Z,98648.09
2022-09-13T18:36:34.135Z,98647.52
2022-09-13T18:38:40.886Z,98645.27
2022-09-13T18:40:46.057Z,98643.21
2022-09-13T18:42:51.082Z,98645.99
2022-09-13T18:44:56.119Z,98648.45
2022-09-13T18:47:01.356Z,98641.15
2022-09-13T18:49:07.519Z,98644.58
2022-09-13T18:51:14.520Z,98643.86
2022-09-13T18:53:19.803Z,98647.88
2022-09-13T18:55:24.804Z,98644.86
2022-09-13T18:57:30.026Z,98646.50
2022-09-13T18:59:35.270Z,98641.60
2022-09-13T19:01:42.387Z,98639.08
2022-09-13T19:03:51.448Z,98638.54
2022-09-13T19:05:56.656Z,98639.96
2022-09-13T19:08:02.250Z,98637.27
2022-09-13T19:10:10.978Z,98638.62
2022-09-13T19:12:18.308Z,98638.66
2022-09-13T19:14:24.873Z,98634.77
2022-09-13T19:16:30.154Z,98634.28
2022-09-13T19:18:37.003Z,98633.89
2022-09-13T19:20:42.431Z,98637.46
2022-09-13T19:22:47.820Z,98637.13
2022-09-13T19:24:53.065Z,98638.39
2022-09-13T19:26:58.436Z,98638.05
2022-09-13T19:29:07.295Z,98641.52
2022-09-13T19:31:13.839Z,98640.90
2022-09-13T19:33:19.216Z,98639.67
2022-09-13T19:35:24.467Z,98635.98
2022-09-13T19:37:29.808Z,98633.06
2022-09-13T19:39:34.968Z,98633.45
2022-09-13T19:41:41.393Z,98632.36
2022-09-13T19:43:47.111Z,98631.40
2022-09-13T19:45:58.751Z,98630.05
2022-09-13T19:50:29.677Z,98628.73
2022-09-13T19:52:34.907Z,98625.77
2022-09-13T19:54:40.079Z,98627.14
2022-09-13T19:56:46.056Z,98623.93
2022-09-13T19:58:51.812Z,98626.70
2022-09-13T20:01:04.706Z,98621.43
2022-09-13T20:03:10.410Z,98619.77
2022-09-13T20:05:15.649Z,98618.45
2022-09-13T20:07:20.845Z,98620.39
2022-09-13T20:09:26.208Z,98624.27
2022-09-13T20:11:32.131Z,98621.30
2022-09-13T20:13:37.836Z,98621.13
2022-09-13T20:15:43.260Z,98626.15
2022-09-13T20:17:48.453Z,98624.00
2022-09-13T20:19:53.875Z,98620.80
2022-09-13T20:21:59.022Z,98617.56
2022-09-13T20:24:08.850Z,98608.02
2022-09-13T20:26:18.598Z,98609.63
2022-09-13T20:28:24.183Z,98610.04
2022-09-13T20:30:29.716Z,98610.05
2022-09-13T20:32:34.899Z,98609.35
2022-09-13T20:34:40.113Z,98605.10
2022-09-13T20:36:47.391Z,98604.71
2022-09-13T20:38:53.374Z,98605.79
2022-09-13T20:41:04.175Z,98601.42
2022-09-13T20:43:09.295Z,98601.05
2022-09-13T20:45:14.299Z,98601.08
2022-09-13T20:47:20.266Z,98602.82
2022-09-13T20:49:25.760Z,98602.36
2022-09-13T20:51:34.543Z,98589.16
2022-09-13T20:53:42.369Z,98588.06
2022-09-13T20:55:47.425Z,98583.40
2022-09-13T20:57:52.508Z,98583.42
2022-09-13T20:59:57.290Z,98586.52
2022-09-13T21:02:02.394Z,98581.50
2022-09-13T21:04:07.413Z,98580.88
2022-09-13T21:06:12.646Z,98586.65
2022-09-13T21:08:18.096Z,98585.63
2022-09-13T21:10:22.977Z,98586.89
2022-09-13T21:12:28.915Z,98583.70
2022-09-13T21:14:33.872Z,98585.06
2022-09-13T21:16:40.136Z,98581.86
2022-09-13T21:18:46.007Z,98585.35
2022-09-13T21:20:57.935Z,98584.88
2022-09-13T21:23:03.261Z,98585.95
2022-09-13T21:25:09.189Z,98582.34
2022-09-13T21:27:13.849Z,98583.33
2022-09-13T21:29:19.593Z,98582.69
2022-09-13T21:31:27.272Z,98580.56
2022-09-13T21:33:32.329Z,98580.18
2022-09-13T21:35:39.550Z,98581.14
2022-09-13T21:37:44.227Z,98581.89
2022-09-13T21:39:48.977Z,98578.23
2022-09-13T21:41:53.679Z,98577.31
2022-09-13T21:43:58.722Z,98579.73
2022-09-13T21:46:13.013Z,98573.46
2022-09-13T21:48:18.207Z,98571.02
2022-09-13T21:50:24.899Z,98575.42
2022-09-13T21:52:32.368Z,98572.90
2022-09-13T21:54:37.033Z,98571.12
2022-09-13T21:56:44.672Z,98570.30
2022-09-13T21:58:52.218Z,98571.96
2022-09-13T22:01:00.509Z,98562.73
2022-09-13T22:03:05.524Z,98558.82
2022-09-13T22:05:10.937Z,98558.22
2022-09-13T22:07:15.640Z,98557.50
2022-09-13T22:09:21.931Z,98556.38
2022-09-13T22:11:28.494Z,98553.77
2022-09-13T22:13:35.466Z,98548.02
2022-09-13T22:15:40.211Z,98541.67
2022-09-13T22:17:45.202Z,98544.42
2022-09-13T22:19:49.796Z,98542.70
2022-09-13T22:21:59.905Z,98554.02
2022-09-13T22:24:06.485Z,98552.34
2022-09-13T22:26:15.089Z,98555.98
2022-09-13T22:28:21.024Z,98553.89
2022-09-13T22:30:25.946Z,98552.23
2022-09-13T22:32:30.962Z,98550.23
2022-09-13T22:34:35.805Z,98552.52
2022-09-13T22:36:42.343Z,98553.05
2022-09-13T22:38:53.041Z,98551.44
2022-09-13T22:41:03.383Z,98557.71
2022-09-13T22:43:07.958Z,98556.44
2022-09-13T22:45:15.365Z,98563.97
2022-09-13T22:47:21.272Z,98561.27
2022-09-13T22:49:27.537Z,98567.94
2022-09-13T22:51:32.744Z,98566.71
2022-09-13T22:53:39.567Z,98568.77
2022-09-13T22:55:44.377Z,98567.39
2022-09-13T22:57:52.091Z,98565.61
2022-09-13T22:59:56.866Z,98561.95
2022-09-13T23:02:01.935Z,98560.09
2022-09-13T23:04:06.942Z,98562.20
2022-09-13T23:06:13.622Z,98562.90
2022-09-13T23:08:18.481Z,98559.17
2022-09-13T23:10:24.025Z,98553.77
2022-09-13T23:12:30.667Z,98559.14
2022-09-13T23:14:35.500Z,98559.23
2022-09-13T23:16:42.322Z,98560.55
2022-09-13T23:18:48.217Z,98560.34
2022-09-13T23:20:58.752Z,98568.92
2022-09-13T23:23:04.271Z,98563.09
2022-09-13T23:25:10.279Z,98557.92
2022-09-13T23:27:15.202Z,98559.75
2022-09-13T23:29:20.801Z,98554.40
2022-09-13T23:31:27.674Z,98552.36
2022-09-13T23:33:32.535Z,98551.60
2022-09-13T23:35:37.339Z,98555.90
2022-09-13T23:37:42.554Z,98550.67
2022-09-13T23:39:47.292Z,98551.80
2022-09-13T23:41:51.986Z,98548.29
2022-09-13T23:43:57.055Z,98549.10
2022-09-13T23:46:01.922Z,98546.84
2022-09-13T23:48:06.831Z,98546.24
2022-09-13T23:50:12.087Z,98541.74
2022-09-13T23:52:16.841Z,98544.48
2022-09-13T23:54:21.611Z,98552.63
2022-09-13T23:56:28.065Z,98549.51
2022-09-13T23:58:33.696Z,98545.77
